createdAt,value
2022-12-15T00:02:17.085Z,34.13
2022-12-15T00:05:02.368Z,33.38
2022-12-15T00:07:47.783Z,32.20
2022-12-15T00:10:33.726Z,30.08
2022-12-15T00:13:19.091Z,46.17
2022-12-15T00:16:05.550Z,32.53
2022-12-15T00:18:50.768Z,20.77
2022-12-15T00:21:36.545Z,18.70
2022-12-15T00:24:22.162Z,17.10
2022-12-15T00:27:07.532Z,18.88
2022-12-15T00:29:53.058Z,19.60
2022-12-15T00:32:38.437Z,22.63
2022-12-15T00:35:23.865Z,20.33
2022-12-15T00:38:09.473Z,19.33
2022-12-15T00:40:36.366Z,22.30
2022-12-15T00:43:03.414Z,22.33
2022-12-15T00:45:48.619Z,19.98
2022-12-15T00:48:15.512Z,21.55
2022-12-15T00:50:53.981Z,20.98
2022-12-15T00:53:43.187Z,27.77
2022-12-15T00:56:28.563Z,24.15
2022-12-15T00:59:14.130Z,27.80
2022-12-15T01:02:00.439Z,27.48
2022-12-15T01:07:31.635Z,26.33
2022-12-15T01:10:17.116Z,27.50
2022-12-15T01:13:02.597Z,24.77
2022-12-15T01:15:48.085Z,27.35
2022-12-15T01:18:33.418Z,28.17
2022-12-15T01:21:05.852Z,24.05
2022-12-15T01:23:33.611Z,21.35
2022-12-15T01:26:01.442Z,24.63
2022-12-15T01:28:28.695Z,24.80
2022-12-15T01:30:55.559Z,25.23
2022-12-15T01:33:23.465Z,29.63
2022-12-15T01:36:00.876Z,26.90
2022-12-15T01:38:29.197Z,28.83
2022-12-15T01:41:00.727Z,24.52
2022-12-15T01:43:34.703Z,28.05
2022-12-15T01:46:01.941Z,26.83
2022-12-15T01:48:42.616Z,31.40
2022-12-15T01:51:34.202Z,27.10
2022-12-15T01:54:06.839Z,30.48
2022-12-15T01:56:38.081Z,28.13
2022-12-15T01:59:09.129Z,25.27
2022-12-15T02:01:36.079Z,28.48
2022-12-15T02:04:03.572Z,29.35
2022-12-15T02:08:59.756Z,22.77
2022-12-15T02:11:43.204Z,25.58
2022-12-15T02:14:12.724Z,26.40
2022-12-15T02:16:48.435Z,26.40
2022-12-15T02:19:39.868Z,24.98
2022-12-15T02:22:41.888Z,25.92
2022-12-15T02:25:34.796Z,24.88
2022-12-15T02:28:07.303Z,31.20
2022-12-15T02:31:16.364Z,23.23
2022-12-15T02:34:00.090Z,23.88
2022-12-15T02:36:33.855Z,23.42
2022-12-15T02:39:01.287Z,23.35
2022-12-15T02:41:36.845Z,25.02
2022-12-15T02:44:11.589Z,25.27
2022-12-15T02:46:48.361Z,24.90
2022-12-15T02:49:22.615Z,21.98
2022-12-15T02:52:18.478Z,23.45
2022-12-15T02:55:06.139Z,22.67
2022-12-15T02:58:00.992Z,23.30
2022-12-15T03:00:30.399Z,25.25
2022-12-15T03:02:57.363Z,21.40
2022-12-15T03:05:25.848Z,23.45
2022-12-15T03:07:54.412Z,20.65
2022-12-15T03:10:25.179Z,20.60
2022-12-15T03:12:52.420Z,20.55
2022-12-15T03:17:46.462Z,20.58
2022-12-15T03:20:13.573Z,19.38
2022-12-15T03:22:40.914Z,19.05
2022-12-15T03:27:35.542Z,16.65
2022-12-15T03:30:02.357Z,23.67
2022-12-15T03:32:30.047Z,23.92
2022-12-15T03:34:56.845Z,24.10
2022-12-15T03:37:23.601Z,20.00
2022-12-15T03:39:50.368Z,25.13
2022-12-15T03:42:37.223Z,21.73
2022-12-15T03:45:04.514Z,21.05
2022-12-15T03:47:32.101Z,21.20
2022-12-15T03:49:58.911Z,21.42
2022-12-15T03:52:26.051Z,19.85
2022-12-15T03:54:52.808Z,16.88
2022-12-15T03:57:19.577Z,18.27
2022-12-15T03:59:46.396Z,17.63
2022-12-15T04:02:13.334Z,17.52
2022-12-15T04:04:40.188Z,19.83
2022-12-15T04:07:06.949Z,16.55
2022-12-15T04:09:33.671Z,19.52
2022-12-15T04:12:03.233Z,18.17
2022-12-15T04:14:30.454Z,22.90
2022-12-15T04:16:57.662Z,20.90
2022-12-15T04:22:13.714Z,31.63
2022-12-15T04:25:01.949Z,28.35
2022-12-15T04:27:47.401Z,24.27
2022-12-15T04:30:32.817Z,29.85
2022-12-15T04:33:18.968Z,27.52
2022-12-15T04:36:04.847Z,20.48
2022-12-15T04:38:50.851Z,24.05
2022-12-15T04:41:39.623Z,24.40
2022-12-15T04:44:25.406Z,29.05
2022-12-15T04:47:11.001Z,26.83
2022-12-15T04:49:56.330Z,25.38
2022-12-15T04:52:41.864Z,29.52
2022-12-15T04:55:27.615Z,28.35
2022-12-15T04:58:12.988Z,30.73
2022-12-15T05:00:58.751Z,31.15
2022-12-15T05:03:44.235Z,30.13
2022-12-15T05:06:29.425Z,33.30
2022-12-15T05:09:14.830Z,30.20
2022-12-15T05:12:00.207Z,31.50
2022-12-15T05:14:45.516Z,34.35
2022-12-15T05:17:41.183Z,36.05
2022-12-15T05:20:27.789Z,35.50
2022-12-15T05:23:16.824Z,35.03
2022-12-15T05:26:02.816Z,34.47
2022-12-15T05:28:48.444Z,33.38
2022-12-15T05:31:33.879Z,33.28
2022-12-15T05:34:05.098Z,31.90
2022-12-15T05:36:33.125Z,27.58
2022-12-15T05:39:00.015Z,32.88
2022-12-15T05:41:26.936Z,32.80
2022-12-15T05:43:53.747Z,30.67
2022-12-15T05:46:20.720Z,31.73
2022-12-15T05:48:47.734Z,32.65
2022-12-15T05:51:15.109Z,32.30
2022-12-15T05:53:42.344Z,26.17
2022-12-15T05:56:11.867Z,27.90
2022-12-15T05:58:44.794Z,27.65
2022-12-15T06:01:15.222Z,28.95
2022-12-15T06:03:42.664Z,27.75
2022-12-15T06:06:11.500Z,26.80
2022-12-15T06:08:40.925Z,28.45
2022-12-15T06:11:07.841Z,29.83
2022-12-15T06:13:35.215Z,29.17
2022-12-15T06:16:05.192Z,28.60
2022-12-15T06:18:38.224Z,30.88
2022-12-15T06:21:10.901Z,31.00
2022-12-15T06:23:38.361Z,30.05
2022-12-15T06:26:09.065Z,27.30
2022-12-15T06:28:35.886Z,25.85
2022-12-15T06:31:05.235Z,27.00
2022-12-15T06:33:32.303Z,30.63
2022-12-15T06:38:30.500Z,34.22
2022-12-15T06:41:01.281Z,31.50
2022-12-15T06:43:29.632Z,37.80
2022-12-15T06:45:56.877Z,36.00
2022-12-15T06:48:24.581Z,37.60
2022-12-15T06:50:52.150Z,36.95
2022-12-15T06:53:20.508Z,41.33
2022-12-15T06:55:48.124Z,39.85
2022-12-15T06:58:15.704Z,39.97
2022-12-15T07:00:44.265Z,37.03
2022-12-15T07:03:15.571Z,37.30
2022-12-15T07:05:43.853Z,40.15
2022-12-15T07:08:15.506Z,37.47
2022-12-15T07:10:45.121Z,39.17
2022-12-15T07:13:13.576Z,42.05
2022-12-15T07:15:41.564Z,37.67
2022-12-15T07:18:10.496Z,43.83
2022-12-15T07:20:37.624Z,43.22
2022-12-15T07:23:08.047Z,40.85
2022-12-15T07:25:36.834Z,42.50
2022-12-15T07:28:04.398Z,45.20
2022-12-15T07:30:36.736Z,50.00
2022-12-15T07:33:05.951Z,39.92
2022-12-15T07:35:33.000Z,37.53
2022-12-15T07:38:00.280Z,42.47
2022-12-15T07:42:54.061Z,39.00
2022-12-15T07:45:21.893Z,46.88
2022-12-15T07:47:50.289Z,37.90
2022-12-15T07:50:18.744Z,39.50
2022-12-15T07:52:46.269Z,41.65
2022-12-15T07:55:13.137Z,36.40
2022-12-15T07:57:39.973Z,39.22
2022-12-15T08:00:10.523Z,45.83
2022-12-15T08:02:37.578Z,38.40
2022-12-15T08:05:04.766Z,37.13
2022-12-15T08:07:31.497Z,37.45
2022-12-15T08:09:58.267Z,38.80
2022-12-15T08:12:25.093Z,40.42
2022-12-15T08:14:51.989Z,37.88
2022-12-15T08:17:18.903Z,43.53
2022-12-15T08:19:45.763Z,40.58
2022-12-15T08:22:12.541Z,37.55
2022-12-15T08:24:40.338Z,37.42
2022-12-15T08:27:08.333Z,36.17
2022-12-15T08:29:52.093Z,39.35
2022-12-15T08:32:19.207Z,35.13
2022-12-15T08:34:47.775Z,38.47
2022-12-15T08:37:14.590Z,40.95
2022-12-15T08:39:41.546Z,39.05
2022-12-15T08:42:08.412Z,38.75
2022-12-15T08:44:35.319Z,36.60
2022-12-15T08:47:02.107Z,38.33
2022-12-15T08:49:29.021Z,43.83
2022-12-15T08:51:55.848Z,38.28
2022-12-15T08:54:22.730Z,40.17
2022-12-15T08:56:49.621Z,35.95
2022-12-15T08:59:16.758Z,39.67
2022-12-15T09:04:10.895Z,39.55
2022-12-15T09:06:37.815Z,42.25
2022-12-15T09:09:10.281Z,40.53
2022-12-15T09:11:37.173Z,37.83
2022-12-15T09:14:04.166Z,38.00
2022-12-15T09:16:31.349Z,35.42
2022-12-15T09:21:28.864Z,35.42
2022-12-15T09:24:00.546Z,36.83
2022-12-15T09:26:29.693Z,33.35
2022-12-15T09:28:56.873Z,31.73
2022-12-15T09:33:58.183Z,35.20
2022-12-15T09:36:25.944Z,31.80
2022-12-15T09:38:53.046Z,36.33
2022-12-15T09:44:18.950Z,35.25
2022-12-15T09:47:05.960Z,34.17
2022-12-15T09:49:38.822Z,35.00
2022-12-15T09:52:12.238Z,31.55
2022-12-15T09:54:42.976Z,30.77
2022-12-15T09:57:18.803Z,33.15
2022-12-15T09:59:54.430Z,36.22
2022-12-15T10:02:40.007Z,29.92
2022-12-15T10:06:07.259Z,35.72
2022-12-15T10:08:23.545Z,32.03
2022-12-15T10:11:00.840Z,35.88
2022-12-15T10:13:50.285Z,32.95
2022-12-15T10:16:35.677Z,32.60
2022-12-15T10:19:19.476Z,39.20
2022-12-15T10:21:50.650Z,35.38
2022-12-15T10:25:00.305Z,34.42
2022-12-15T10:27:17.167Z,41.65
2022-12-15T10:30:09.100Z,38.55
2022-12-15T10:32:51.376Z,35.85
2022-12-15T10:35:25.229Z,41.10
2022-12-15T10:37:52.225Z,31.33
2022-12-15T10:40:40.855Z,39.30
2022-12-15T10:43:15.352Z,34.60
2022-12-15T10:45:42.641Z,33.75
2022-12-15T10:48:19.543Z,32.97
2022-12-15T10:50:47.258Z,32.38
2022-12-15T10:53:41.200Z,33.05
2022-12-15T10:56:11.010Z,33.53
2022-12-15T10:59:14.480Z,35.95
2022-12-15T11:01:41.402Z,52.80
2022-12-15T11:04:32.194Z,32.80
2022-12-15T11:07:01.480Z,31.83
2022-12-15T11:09:36.863Z,35.70
2022-12-15T11:12:46.279Z,35.35
2022-12-15T11:15:23.608Z,36.58
2022-12-15T11:17:57.731Z,38.78
2022-12-15T11:20:32.850Z,37.90
2022-12-15T11:23:09.622Z,34.90
2022-12-15T11:25:51.377Z,31.75
2022-12-15T11:28:34.332Z,32.25
2022-12-15T11:31:22.603Z,34.22
2022-12-15T11:33:52.823Z,32.58
2022-12-15T11:36:53.886Z,30.15
2022-12-15T11:39:55.642Z,32.42
2022-12-15T11:42:59.767Z,27.42
2022-12-15T11:45:40.583Z,33.42
2022-12-15T11:48:12.797Z,34.35
2022-12-15T11:50:58.899Z,35.22
2022-12-15T11:53:52.083Z,33.13
2022-12-15T11:56:32.710Z,35.30
2022-12-15T11:59:11.175Z,30.88
2022-12-15T12:02:04.508Z,33.47
2022-12-15T12:04:44.120Z,35.70
2022-12-15T12:07:26.215Z,31.20
2022-12-15T12:10:24.234Z,33.17
2022-12-15T12:13:05.467Z,33.30
2022-12-15T12:15:44.319Z,33.58
2022-12-15T12:18:20.320Z,30.48
2022-12-15T12:21:12.825Z,33.55
2022-12-15T12:26:52.150Z,32.58
2022-12-15T12:29:53.040Z,34.60
2022-12-15T12:32:40.452Z,27.08
2022-12-15T12:35:31.022Z,29.33
2022-12-15T12:38:04.839Z,30.10
2022-12-15T12:40:40.991Z,23.05
2022-12-15T12:43:43.279Z,24.55
2022-12-15T12:46:33.918Z,21.85
2022-12-15T12:49:04.296Z,23.48
2022-12-15T12:51:42.495Z,28.52
2022-12-15T12:54:37.042Z,15.63
2022-12-15T12:57:30.084Z,18.25
2022-12-15T13:00:00.122Z,17.15
2022-12-15T13:02:27.067Z,16.58
2022-12-15T13:08:06.775Z,22.85
2022-12-15T13:10:34.954Z,23.30
2022-12-15T13:13:30.233Z,27.25
2022-12-15T13:16:25.029Z,29.85
2022-12-15T13:19:03.181Z,39.33
2022-12-15T13:21:45.073Z,30.10
2022-12-15T13:24:51.435Z,38.53
2022-12-15T13:27:19.891Z,38.15
2022-12-15T13:30:02.470Z,32.55
2022-12-15T13:32:29.358Z,32.17
2022-12-15T13:34:56.677Z,32.65
2022-12-15T13:37:42.454Z,40.95
2022-12-15T13:40:33.730Z,36.40
2022-12-15T13:43:32.400Z,39.67
2022-12-15T13:48:42.948Z,37.38
2022-12-15T13:51:21.621Z,37.38
2022-12-15T13:54:10.132Z,36.08
2022-12-15T13:56:59.974Z,38.85
2022-12-15T13:59:26.873Z,37.45
2022-12-15T14:01:54.199Z,37.80
2022-12-15T14:04:22.087Z,38.30
2022-12-15T14:07:00.218Z,36.75
2022-12-15T14:09:33.776Z,37.47
2022-12-15T14:14:33.404Z,36.17
2022-12-15T14:17:02.898Z,37.03
2022-12-15T14:19:44.030Z,38.85
2022-12-15T14:22:30.608Z,37.28
2022-12-15T14:25:03.865Z,38.15
2022-12-15T14:27:32.720Z,45.95
2022-12-15T14:30:14.608Z,43.55
2022-12-15T14:32:43.849Z,38.10
2022-12-15T14:35:34.521Z,37.95
2022-12-15T14:38:05.401Z,40.20
2022-12-15T14:40:36.159Z,40.40
2022-12-15T14:43:04.606Z,43.97
2022-12-15T14:45:34.682Z,40.35
2022-12-15T14:50:55.050Z,41.03
2022-12-15T14:53:23.460Z,33.30
2022-12-15T14:55:50.260Z,33.08
2022-12-15T14:58:25.509Z,34.53
2022-12-15T15:00:54.054Z,32.30
2022-12-15T15:03:27.314Z,31.25
2022-12-15T15:06:14.271Z,34.83
2022-12-15T15:08:43.817Z,40.15
2022-12-15T15:11:31.101Z,36.17
2022-12-15T15:14:05.863Z,37.25
2022-12-15T15:16:32.781Z,35.90
2022-12-15T15:19:02.423Z,36.97
2022-12-15T15:21:33.973Z,38.65
2022-12-15T15:24:02.176Z,38.35
2022-12-15T15:26:30.957Z,33.30
2022-12-15T15:28:58.047Z,34.78
2022-12-15T15:31:24.828Z,39.38
2022-12-15T15:33:52.718Z,38.88
2022-12-15T15:36:19.714Z,33.92
2022-12-15T15:38:46.790Z,33.95
2022-12-15T15:41:19.456Z,33.10
2022-12-15T15:43:47.193Z,40.78
2022-12-15T15:46:20.695Z,34.60
2022-12-15T15:51:26.745Z,38.72
2022-12-15T15:53:57.957Z,37.45
2022-12-15T15:56:24.857Z,37.78
2022-12-15T15:58:51.571Z,34.17
2022-12-15T16:01:18.550Z,33.85
2022-12-15T16:06:20.554Z,31.92
2022-12-15T16:08:52.354Z,28.63
2022-12-15T16:11:20.100Z,28.35
2022-12-15T16:13:47.064Z,30.20
2022-12-15T16:16:19.825Z,27.88
2022-12-15T16:18:46.780Z,26.38
2022-12-15T16:21:15.010Z,28.50
2022-12-15T16:23:45.152Z,26.50
2022-12-15T16:26:17.450Z,31.80
2022-12-15T16:28:44.190Z,26.85
2022-12-15T16:31:15.823Z,24.38
2022-12-15T16:33:42.882Z,28.63
2022-12-15T16:36:14.164Z,26.92
2022-12-15T16:38:41.468Z,30.13
2022-12-15T16:41:12.676Z,25.48
2022-12-15T16:43:44.512Z,24.60
2022-12-15T16:46:15.533Z,26.38
2022-12-15T16:48:43.540Z,24.63
2022-12-15T16:51:24.295Z,29.02
2022-12-15T16:53:51.156Z,28.75
2022-12-15T16:56:17.952Z,27.30
2022-12-15T16:58:48.797Z,25.52
2022-12-15T17:01:19.690Z,28.48
2022-12-15T17:03:47.248Z,29.33
2022-12-15T17:06:16.124Z,29.90
2022-12-15T17:08:46.891Z,28.83
2022-12-15T17:11:24.124Z,28.33
2022-12-15T17:13:53.678Z,29.35
2022-12-15T17:16:25.846Z,28.40
2022-12-15T17:18:53.324Z,28.95
2022-12-15T17:21:30.263Z,29.90
2022-12-15T17:24:04.627Z,35.50
2022-12-15T17:26:35.133Z,32.67
2022-12-15T17:29:15.428Z,32.88
2022-12-15T17:31:45.354Z,29.83
2022-12-15T17:34:36.482Z,30.23
2022-12-15T17:37:06.043Z,27.13
2022-12-15T17:39:34.873Z,28.40
2022-12-15T17:42:02.847Z,24.63
2022-12-15T17:44:38.160Z,25.42
2022-12-15T17:47:07.727Z,24.83
2022-12-15T17:49:37.743Z,26.73
2022-12-15T17:52:26.859Z,27.98
2022-12-15T17:54:54.566Z,23.65
2022-12-15T17:57:21.678Z,25.08
2022-12-15T17:59:48.667Z,29.08
2022-12-15T18:02:17.980Z,21.88
2022-12-15T18:04:45.031Z,23.83
2022-12-15T18:07:20.709Z,23.33
2022-12-15T18:09:48.331Z,20.77
2022-12-15T18:12:21.563Z,26.67
2022-12-15T18:14:48.364Z,24.05
2022-12-15T18:17:15.201Z,26.25
2022-12-15T18:19:41.956Z,25.92
2022-12-15T18:22:20.310Z,20.23
2022-12-15T18:24:47.403Z,20.35
2022-12-15T18:27:23.555Z,19.63
2022-12-15T18:29:53.710Z,16.33
2022-12-15T18:32:23.440Z,20.52
2022-12-15T18:34:50.679Z,16.77
2022-12-15T18:39:50.599Z,16.15
2022-12-15T18:42:21.534Z,17.75
2022-12-15T18:44:50.875Z,18.67
2022-12-15T18:47:26.933Z,22.42
2022-12-15T18:49:54.129Z,27.17
2022-12-15T18:52:24.101Z,24.40
2022-12-15T18:54:53.221Z,22.33
2022-12-15T18:57:30.337Z,20.95
2022-12-15T19:00:18.714Z,25.98
2022-12-15T19:02:45.883Z,21.15
2022-12-15T19:05:32.876Z,19.70
2022-12-15T19:08:09.934Z,20.05
2022-12-15T19:10:47.994Z,19.02
2022-12-15T19:13:16.527Z,17.88
2022-12-15T19:15:44.346Z,21.05
2022-12-15T19:18:40.726Z,21.83
2022-12-15T19:21:33.746Z,20.92
2022-12-15T19:24:00.790Z,18.02
2022-12-15T19:26:27.667Z,17.77
2022-12-15T19:28:54.847Z,21.95
2022-12-15T19:33:48.552Z,20.05
2022-12-15T19:36:22.853Z,20.67
2022-12-15T19:38:52.427Z,21.60
2022-12-15T19:41:19.641Z,23.80
2022-12-15T19:46:19.426Z,21.77
2022-12-15T19:48:47.203Z,22.05
2022-12-15T19:51:18.339Z,22.38
2022-12-15T19:53:48.862Z,18.52
2022-12-15T19:56:19.751Z,20.40
2022-12-15T19:58:46.786Z,24.95
2022-12-15T20:01:15.929Z,20.90
2022-12-15T20:03:45.390Z,20.77
2022-12-15T20:06:22.889Z,22.42
2022-12-15T20:08:51.770Z,21.00
2022-12-15T20:11:22.625Z,18.77
2022-12-15T20:13:50.708Z,21.00
2022-12-15T20:16:19.333Z,19.75
2022-12-15T20:18:54.636Z,20.90
2022-12-15T20:21:23.161Z,23.25
2022-12-15T20:23:57.482Z,20.25
2022-12-15T20:26:25.730Z,22.48
2022-12-15T20:28:53.394Z,19.25
2022-12-15T20:31:23.308Z,18.90
2022-12-15T20:33:51.181Z,18.60
2022-12-15T20:36:24.557Z,19.90
2022-12-15T20:38:52.426Z,20.70
2022-12-15T20:41:24.976Z,19.13
2022-12-15T20:43:53.964Z,20.63
2022-12-15T20:46:24.933Z,21.23
2022-12-15T20:48:53.739Z,21.13
2022-12-15T20:51:26.488Z,20.55
2022-12-15T20:53:55.799Z,20.35
2022-12-15T20:56:23.240Z,15.43
2022-12-15T20:58:50.998Z,13.88
2022-12-15T21:01:18.132Z,14.55
2022-12-15T21:06:12.741Z,15.45
2022-12-15T21:08:39.813Z,15.18
2022-12-15T21:11:21.496Z,16.45
2022-12-15T21:13:49.879Z,16.38
2022-12-15T21:16:19.712Z,14.75
2022-12-15T21:21:36.960Z,13.43
2022-12-15T21:24:30.965Z,15.98
2022-12-15T21:26:57.902Z,15.07
2022-12-15T21:29:27.898Z,14.38
2022-12-15T21:31:54.815Z,15.10
2022-12-15T21:34:21.980Z,14.70
2022-12-15T21:39:25.691Z,13.63
2022-12-15T21:44:21.813Z,16.40
2022-12-15T21:46:48.699Z,13.93
2022-12-15T21:49:18.506Z,16.27
2022-12-15T21:51:50.842Z,14.85
2022-12-15T21:54:25.978Z,15.18
2022-12-15T21:56:55.905Z,14.43
2022-12-15T21:59:24.791Z,13.30
2022-12-15T22:01:51.909Z,13.02
2022-12-15T22:04:21.681Z,12.55
2022-12-15T22:06:50.798Z,12.77
2022-12-15T22:09:18.680Z,10.88
2022-12-15T22:11:49.354Z,10.98
2022-12-15T22:14:24.311Z,10.18
2022-12-15T22:16:51.276Z,10.50
2022-12-15T22:19:18.063Z,10.52
2022-12-15T22:21:44.831Z,11.88
2022-12-15T22:24:12.043Z,9.55
2022-12-15T22:29:19.303Z,14.73
2022-12-15T22:31:46.978Z,10.70
2022-12-15T22:34:21.713Z,9.52
2022-12-15T22:36:49.505Z,9.63
2022-12-15T22:39:18.750Z,10.18
2022-12-15T22:41:47.993Z,9.40
2022-12-15T22:44:17.534Z,10.25
2022-12-15T22:46:44.780Z,9.90
2022-12-15T22:49:22.763Z,10.90
2022-12-15T22:51:49.549Z,11.20
2022-12-15T22:54:22.619Z,11.90
2022-12-15T22:56:54.901Z,14.57
2022-12-15T22:59:35.903Z,11.82
2022-12-15T23:02:03.790Z,11.48
2022-12-15T23:04:31.821Z,11.63
2022-12-15T23:06:59.977Z,11.55
2022-12-15T23:09:26.759Z,11.48
2022-12-15T23:11:54.040Z,12.43
2022-12-15T23:14:42.307Z,13.20
2022-12-15T23:17:09.447Z,13.00
2022-12-15T23:19:36.408Z,11.85
2022-12-15T23:22:03.593Z,13.10
2022-12-15T23:24:31.293Z,13.70
2022-12-15T23:26:58.025Z,14.48
2022-12-15T23:29:24.991Z,13.13
2022-12-15T23:31:51.851Z,13.27
2022-12-15T23:34:18.899Z,13.98
2022-12-15T23:36:45.728Z,12.88
2022-12-15T23:39:12.777Z,13.13
2022-12-15T23:41:40.181Z,12.68
2022-12-15T23:44:07.596Z,12.82
2022-12-15T23:46:34.809Z,13.40
2022-12-15T23:49:01.615Z,12.13
2022-12-15T23:51:28.339Z,12.57
2022-12-15T23:53:55.153Z,11.52
2022-12-15T23:56:24.479Z,11.43
2022-12-15T23:58:59.037Z,12.32
